createdAt,value
2023-06-30T00:01:04.331Z,100503.81
2023-06-30T00:03:46.734Z,100509.88
2023-06-30T00:06:14.533Z,100514.69
2023-06-30T00:08:42.562Z,100509.41
2023-06-30T00:11:11.136Z,100508.88
2023-06-30T00:13:39.087Z,100509.03
2023-06-30T00:16:06.921Z,100502.97
2023-06-30T00:18:34.932Z,100507.22
2023-06-30T00:21:04.133Z,100490.78
2023-06-30T00:23:32.242Z,100485.50
2023-06-30T00:26:00.078Z,100487.91
2023-06-30T00:28:28.243Z,100483.03
2023-06-30T00:30:56.240Z,100484.00
2023-06-30T00:33:27.602Z,100479.94
2023-06-30T00:35:55.769Z,100475.72
2023-06-30T00:38:23.838Z,100476.50
2023-06-30T00:40:51.600Z,100474.75
2023-06-30T00:43:19.418Z,100470.25
2023-06-30T00:45:48.834Z,100471.88
2023-06-30T00:48:18.713Z,100473.41
2023-06-30T00:50:46.843Z,100473.41
2023-06-30T00:53:14.998Z,100468.78
2023-06-30T00:55:42.921Z,100469.47
2023-06-30T00:58:10.648Z,100468.88
2023-06-30T01:00:38.748Z,100463.81
2023-06-30T01:03:18.771Z,100461.50
2023-06-30T01:05:56.606Z,100470.53
2023-06-30T01:08:38.720Z,100454.81
2023-06-30T01:11:07.781Z,100459.47
2023-06-30T01:13:35.752Z,100457.22
2023-06-30T01:16:07.003Z,100455.38
2023-06-30T01:18:37.425Z,100460.28
2023-06-30T01:21:06.273Z,100458.47
2023-06-30T01:23:39.318Z,100455.44
2023-06-30T01:26:07.988Z,100452.25
2023-06-30T01:28:39.261Z,100449.97
2023-06-30T01:31:10.835Z,100445.59
2023-06-30T01:33:42.457Z,100449.34
2023-06-30T01:36:10.586Z,100452.50
2023-06-30T01:38:38.374Z,100452.63
2023-06-30T01:41:09.536Z,100454.41
2023-06-30T01:43:38.173Z,100451.16
2023-06-30T01:46:06.557Z,100456.88
2023-06-30T01:48:34.780Z,100451.38
2023-06-30T01:51:02.894Z,100459.59
2023-06-30T01:53:30.723Z,100453.28
2023-06-30T01:56:00.091Z,100448.44
2023-06-30T01:58:28.039Z,100441.41
2023-06-30T02:00:56.442Z,100439.22
2023-06-30T02:03:24.224Z,100432.78
2023-06-30T02:05:52.381Z,100427.03
2023-06-30T02:08:21.834Z,100429.44
2023-06-30T02:10:50.638Z,100423.16
2023-06-30T02:13:18.374Z,100428.38
2023-06-30T02:15:47.081Z,100422.22
2023-06-30T02:18:15.101Z,100428.66
2023-06-30T02:20:43.112Z,100423.31
2023-06-30T02:23:10.762Z,100425.81
2023-06-30T02:25:40.542Z,100420.88
2023-06-30T02:28:08.196Z,100424.19
2023-06-30T02:30:36.151Z,100424.66
2023-06-30T02:33:05.155Z,100419.88
2023-06-30T02:35:33.696Z,100424.56
2023-06-30T02:38:01.451Z,100421.72
2023-06-30T02:40:31.374Z,100417.91
2023-06-30T02:43:00.432Z,100409.41
2023-06-30T02:45:28.427Z,100411.38
2023-06-30T02:47:56.139Z,100402.16
2023-06-30T02:50:30.259Z,100397.00
2023-06-30T02:53:00.687Z,100390.66
2023-06-30T02:55:29.048Z,100393.41
2023-06-30T02:57:57.410Z,100386.13
2023-06-30T03:00:26.257Z,100390.13
2023-06-30T03:02:54.745Z,100390.81
2023-06-30T03:05:23.345Z,100391.72
2023-06-30T03:07:51.085Z,100389.47
2023-06-30T03:10:20.759Z,100389.72
2023-06-30T03:12:48.488Z,100387.22
2023-06-30T03:15:16.824Z,100394.03
2023-06-30T03:17:45.871Z,100401.56
2023-06-30T03:20:14.022Z,100406.97
2023-06-30T03:22:41.862Z,100401.56
2023-06-30T03:25:10.750Z,100401.38
2023-06-30T04:22:06.877Z,100367.50
2023-06-30T04:24:35.006Z,100366.56
2023-06-30T04:27:03.312Z,100371.47
2023-06-30T04:29:31.448Z,100376.03
2023-06-30T04:31:59.292Z,100384.09
2023-06-30T04:34:27.387Z,100376.25
2023-06-30T04:36:55.342Z,100373.09
2023-06-30T04:39:23.460Z,100386.81
2023-06-30T04:41:51.272Z,100383.66
2023-06-30T04:44:19.773Z,100385.56
2023-06-30T04:46:47.546Z,100376.31
2023-06-30T04:49:16.459Z,100378.97
2023-06-30T04:51:44.182Z,100376.91
2023-06-30T04:54:12.276Z,100377.44
2023-06-30T04:56:39.910Z,100376.25
2023-06-30T04:59:08.196Z,100370.69
2023-06-30T05:01:35.883Z,100376.56
2023-06-30T05:04:04.049Z,100375.22
2023-06-30T05:06:31.818Z,100370.19
2023-06-30T05:09:00.107Z,100371.47
2023-06-30T05:11:27.778Z,100367.88
2023-06-30T05:13:55.898Z,100365.91
2023-06-30T05:16:23.763Z,100357.19
2023-06-30T05:18:52.165Z,100358.25
2023-06-30T05:21:19.997Z,100347.69
2023-06-30T05:23:48.001Z,100343.31
2023-06-30T05:26:15.732Z,100348.91
2023-06-30T05:28:52.686Z,100336.28
2023-06-30T05:31:28.033Z,100324.94
2023-06-30T05:33:56.204Z,100316.94
2023-06-30T05:36:24.157Z,100313.34
2023-06-30T05:38:52.236Z,100318.22
2023-06-30T05:41:20.035Z,100314.19
2023-06-30T05:43:48.008Z,100317.19
2023-06-30T05:46:15.788Z,100316.31
2023-06-30T05:48:44.087Z,100311.59
2023-06-30T05:51:11.844Z,100310.41
2023-06-30T05:53:39.848Z,100308.47
2023-06-30T05:56:07.584Z,100317.75
2023-06-30T05:58:39.258Z,100305.59
2023-06-30T06:01:07.058Z,100321.50
2023-06-30T06:03:35.338Z,100319.81
2023-06-30T06:06:03.285Z,100312.88
2023-06-30T06:08:31.767Z,100304.41
2023-06-30T06:10:59.497Z,100308.78
2023-06-30T06:13:39.947Z,100313.13
2023-06-30T06:16:08.463Z,100315.88
2023-06-30T06:18:36.601Z,100316.53
2023-06-30T06:21:07.356Z,100322.50
2023-06-30T06:23:35.394Z,100336.03
2023-06-30T06:26:03.663Z,100332.09
2023-06-30T06:28:31.797Z,100327.75
2023-06-30T06:30:59.700Z,100335.69
2023-06-30T06:33:28.233Z,100331.13
2023-06-30T06:35:56.065Z,100336.31
2023-06-30T06:38:24.138Z,100329.19
2023-06-30T06:40:51.867Z,100335.25
2023-06-30T06:43:19.992Z,100338.84
2023-06-30T06:45:48.027Z,100338.00
2023-06-30T06:48:34.367Z,100347.09
2023-06-30T06:51:03.350Z,100355.31
2023-06-30T06:53:34.049Z,100362.47
2023-06-30T06:56:02.140Z,100373.22
2023-06-30T06:58:31.326Z,100370.25
2023-06-30T07:00:59.270Z,100371.66
2023-06-30T07:03:27.427Z,100379.13
2023-06-30T07:05:56.673Z,100384.94
2023-06-30T07:08:24.946Z,100389.69
2023-06-30T07:10:52.940Z,100392.28
2023-06-30T07:13:22.318Z,100393.41
2023-06-30T07:15:50.549Z,100390.09
2023-06-30T07:18:20.078Z,100391.00
2023-06-30T07:20:48.778Z,100394.69
2023-06-30T07:23:16.875Z,100393.50
2023-06-30T07:25:48.299Z,100388.72
2023-06-30T07:28:17.156Z,100372.06
2023-06-30T07:30:44.980Z,100379.56
2023-06-30T07:33:13.990Z,100369.44
2023-06-30T07:35:42.117Z,100361.84
2023-06-30T07:38:10.797Z,100358.78
2023-06-30T07:40:51.170Z,100354.19
2023-06-30T07:43:23.880Z,100348.06
2023-06-30T07:45:52.044Z,100339.97
2023-06-30T07:48:20.450Z,100342.28
2023-06-30T07:50:59.647Z,100337.03
2023-06-30T07:53:36.023Z,100340.09
2023-06-30T07:56:03.830Z,100346.38
2023-06-30T07:58:32.558Z,100347.31
2023-06-30T08:01:00.263Z,100344.84
2023-06-30T08:03:28.491Z,100336.69
2023-06-30T08:05:57.919Z,100343.81
2023-06-30T08:08:26.156Z,100346.72
2023-06-30T08:10:53.742Z,100344.06
2023-06-30T08:13:21.856Z,100336.03
2023-06-30T08:15:50.131Z,100344.38
2023-06-30T08:18:31.801Z,100349.09
2023-06-30T08:21:03.063Z,100343.47
2023-06-30T08:23:31.312Z,100338.38
2023-06-30T08:26:01.050Z,100329.94
2023-06-30T08:28:29.177Z,100330.09
2023-06-30T08:30:56.938Z,100342.31
2023-06-30T08:33:39.974Z,100331.47
2023-06-30T08:36:08.586Z,100329.88
2023-06-30T08:38:36.595Z,100338.84
2023-06-30T08:41:04.569Z,100338.56
2023-06-30T08:43:33.240Z,100335.84
2023-06-30T08:46:03.529Z,100333.75
2023-06-30T08:48:33.210Z,100331.63
2023-06-30T08:51:01.296Z,100333.63
2023-06-30T08:53:30.499Z,100331.63
2023-06-30T08:55:59.700Z,100331.88
2023-06-30T08:58:28.725Z,100324.28
2023-06-30T09:00:57.218Z,100329.72
2023-06-30T09:03:25.566Z,100333.44
2023-06-30T09:05:55.018Z,100333.75
2023-06-30T09:08:25.203Z,100339.97
2023-06-30T09:10:55.098Z,100329.88
2023-06-30T09:13:24.758Z,100338.56
2023-06-30T09:15:55.889Z,100349.84
2023-06-30T09:18:24.054Z,100345.13
2023-06-30T09:20:52.230Z,100344.75
2023-06-30T09:23:20.278Z,100346.81
2023-06-30T09:25:48.462Z,100350.19
2023-06-30T09:28:17.086Z,100339.03
2023-06-30T09:30:46.779Z,100343.06
2023-06-30T09:33:18.441Z,100339.75
2023-06-30T09:35:48.181Z,100332.06
2023-06-30T09:38:20.658Z,100331.06
2023-06-30T09:40:50.110Z,100323.31
2023-06-30T09:43:22.178Z,100332.25
2023-06-30T09:45:57.326Z,100329.94
2023-06-30T09:48:29.545Z,100322.63
2023-06-30T09:50:57.614Z,100317.50
2023-06-30T09:53:25.583Z,100314.13
2023-06-30T09:55:53.624Z,100312.81
2023-06-30T09:58:21.974Z,100311.13
2023-06-30T10:00:51.804Z,100314.75
2023-06-30T10:03:20.192Z,100314.50
2023-06-30T10:05:51.127Z,100316.66
2023-06-30T10:08:21.134Z,100319.06
2023-06-30T10:10:48.985Z,100317.03
2023-06-30T10:13:19.279Z,100322.16
2023-06-30T10:15:47.427Z,100322.66
2023-06-30T10:18:18.024Z,100326.28
2023-06-30T10:20:50.014Z,100323.81
2023-06-30T10:23:22.220Z,100318.03
2023-06-30T10:25:51.850Z,100319.63
2023-06-30T10:28:21.111Z,100308.84
2023-06-30T10:30:54.678Z,100312.56
2023-06-30T10:33:23.052Z,100318.91
2023-06-30T10:35:51.139Z,100314.44
2023-06-30T10:38:19.485Z,100314.72
2023-06-30T10:40:47.441Z,100311.03
2023-06-30T10:43:15.475Z,100323.13
2023-06-30T10:46:18.540Z,100338.69
2023-06-30T10:48:46.621Z,100349.19
2023-06-30T10:51:14.332Z,100354.06
2023-06-30T10:53:46.119Z,100358.06
2023-06-30T10:56:14.022Z,100367.59
2023-06-30T10:58:43.398Z,100380.66
2023-06-30T11:01:11.200Z,100386.13
2023-06-30T11:03:59.704Z,100378.75
2023-06-30T11:06:27.902Z,100376.34
2023-06-30T11:09:02.683Z,100387.41
2023-06-30T11:11:31.034Z,100382.09
2023-06-30T11:14:06.319Z,100382.03
2023-06-30T11:16:54.354Z,100371.78
2023-06-30T11:19:25.605Z,100362.22
2023-06-30T11:22:12.088Z,100343.91
2023-06-30T11:24:40.970Z,100338.84
2023-06-30T11:27:10.894Z,100335.22
2023-06-30T11:29:40.219Z,100324.56
2023-06-30T11:32:08.477Z,100322.03
2023-06-30T11:34:37.126Z,100326.41
2023-06-30T11:37:07.812Z,100312.88
2023-06-30T11:39:36.412Z,100311.22
2023-06-30T11:42:04.217Z,100311.41
2023-06-30T11:44:36.832Z,100293.44
2023-06-30T11:47:04.917Z,100287.66
2023-06-30T11:49:39.572Z,100288.28
2023-06-30T11:52:07.909Z,100278.47
2023-06-30T11:54:37.165Z,100276.16
2023-06-30T11:57:05.319Z,100268.81
2023-06-30T11:59:33.560Z,100267.94
2023-06-30T12:02:01.835Z,100269.91
2023-06-30T12:04:34.768Z,100263.53
2023-06-30T12:07:04.635Z,100255.41
2023-06-30T12:09:35.927Z,100249.38
2023-06-30T12:12:03.861Z,100249.38
2023-06-30T12:14:32.211Z,100258.06
2023-06-30T12:16:59.949Z,100252.88
2023-06-30T12:19:29.406Z,100247.28
2023-06-30T12:21:58.266Z,100244.09
2023-06-30T12:24:31.076Z,100242.69
2023-06-30T12:27:02.320Z,100239.63
2023-06-30T12:29:33.075Z,100236.47
2023-06-30T12:32:01.749Z,100238.81
2023-06-30T12:34:34.164Z,100235.34
2023-06-30T12:37:02.565Z,100232.88
2023-06-30T12:39:30.754Z,100235.56
2023-06-30T12:41:58.487Z,100232.81
2023-06-30T12:44:26.638Z,100226.75
2023-06-30T12:47:01.088Z,100214.25
2023-06-30T12:49:32.031Z,100221.94
2023-06-30T12:52:01.808Z,100220.75
2023-06-30T12:54:31.976Z,100212.13
2023-06-30T12:56:59.740Z,100205.44
2023-06-30T12:59:27.890Z,100216.59
2023-06-30T13:01:55.802Z,100208.19
2023-06-30T13:04:26.103Z,100215.22
2023-06-30T13:06:56.292Z,100211.03
2023-06-30T13:09:24.490Z,100209.81
2023-06-30T13:11:52.180Z,100201.69
2023-06-30T13:14:20.257Z,100205.75
2023-06-30T13:16:47.994Z,100198.22
2023-06-30T13:19:16.108Z,100203.69
2023-06-30T13:21:44.010Z,100216.00
2023-06-30T13:24:13.366Z,100221.16
2023-06-30T13:26:41.199Z,100211.59
2023-06-30T13:29:11.438Z,100202.28
2023-06-30T13:31:39.372Z,100195.34
2023-06-30T13:34:07.699Z,100193.47
2023-06-30T13:36:36.640Z,100192.50
2023-06-30T13:39:04.745Z,100193.19
2023-06-30T13:41:32.597Z,100200.00
2023-06-30T13:44:00.757Z,100209.34
2023-06-30T13:46:28.637Z,100197.03
2023-06-30T13:48:56.877Z,100191.03
2023-06-30T13:51:24.524Z,100178.91
2023-06-30T13:53:52.951Z,100185.59
2023-06-30T13:56:20.613Z,100199.78
2023-06-30T13:58:49.257Z,100187.94
2023-06-30T14:01:17.122Z,100176.81
2023-06-30T14:03:49.805Z,100177.19
2023-06-30T14:06:19.748Z,100180.66
2023-06-30T14:08:48.188Z,100181.00
2023-06-30T14:11:16.415Z,100183.03
2023-06-30T14:13:47.505Z,100183.72
2023-06-30T14:16:15.583Z,100178.25
2023-06-30T14:18:44.119Z,100172.75
2023-06-30T14:21:11.848Z,100175.53
2023-06-30T14:23:39.880Z,100169.91
2023-06-30T14:26:07.637Z,100170.69
2023-06-30T14:28:35.717Z,100166.06
2023-06-30T14:31:03.629Z,100159.88
2023-06-30T14:33:32.255Z,100159.63
2023-06-30T14:36:00.143Z,100157.19
2023-06-30T14:38:28.177Z,100158.44
2023-06-30T14:40:56.025Z,100154.94
2023-06-30T14:43:25.455Z,100153.59
2023-06-30T14:45:53.342Z,100159.41
2023-06-30T14:48:22.285Z,100150.91
2023-06-30T14:50:50.002Z,100155.78
2023-06-30T14:53:18.133Z,100143.56
2023-06-30T14:55:46.113Z,100148.34
2023-06-30T14:58:14.344Z,100146.13
2023-06-30T15:00:42.307Z,100141.22
2023-06-30T15:03:11.127Z,100138.69
2023-06-30T15:05:38.962Z,100138.22
2023-06-30T15:08:08.165Z,100134.19
2023-06-30T15:10:36.174Z,100142.41
2023-06-30T15:13:04.568Z,100141.47
2023-06-30T15:15:32.375Z,100128.31
2023-06-30T15:18:00.921Z,100138.38
2023-06-30T15:20:28.913Z,100132.06
2023-06-30T15:22:57.036Z,100128.16
2023-06-30T15:25:26.252Z,100133.28
2023-06-30T15:27:54.786Z,100120.84
2023-06-30T15:30:22.747Z,100120.66
2023-06-30T15:32:51.423Z,100118.47
2023-06-30T15:35:19.338Z,100115.28
2023-06-30T15:37:47.469Z,100118.59
2023-06-30T15:40:15.217Z,100124.28
2023-06-30T15:42:44.351Z,100117.63
2023-06-30T15:45:13.097Z,100121.53
2023-06-30T15:47:41.447Z,100118.69
2023-06-30T15:50:09.242Z,100117.53
2023-06-30T15:52:38.902Z,100109.25
2023-06-30T15:55:14.879Z,100109.91
2023-06-30T15:57:43.652Z,100106.91
2023-06-30T16:00:11.781Z,100113.66
2023-06-30T16:02:43.304Z,100116.41
2023-06-30T16:05:11.857Z,100112.94
2023-06-30T16:07:40.123Z,100114.91
2023-06-30T16:10:07.924Z,100117.78
2023-06-30T16:12:36.054Z,100116.88
2023-06-30T16:15:05.521Z,100107.50
2023-06-30T16:17:33.646Z,100109.16
2023-06-30T16:20:01.484Z,100106.84
2023-06-30T16:22:29.731Z,100103.78
2023-06-30T16:24:57.758Z,100111.59
2023-06-30T16:27:26.347Z,100112.78
2023-06-30T16:29:54.139Z,100113.50
2023-06-30T16:32:22.211Z,100119.13
2023-06-30T16:34:50.067Z,100128.66
2023-06-30T16:37:18.258Z,100131.16
2023-06-30T16:39:45.996Z,100125.31
2023-06-30T16:42:13.949Z,100127.91
2023-06-30T16:44:41.676Z,100129.22
2023-06-30T16:47:10.224Z,100127.81
2023-06-30T16:49:37.962Z,100128.31
2023-06-30T16:52:06.356Z,100122.41
2023-06-30T16:54:34.127Z,100122.44
2023-06-30T16:57:02.093Z,100117.75
2023-06-30T16:59:29.824Z,100127.97
2023-06-30T17:01:57.857Z,100127.66
2023-06-30T17:04:25.626Z,100131.56
2023-06-30T17:06:53.864Z,100130.44
2023-06-30T17:09:21.526Z,100129.91
2023-06-30T17:11:50.479Z,100130.69
2023-06-30T17:14:18.266Z,100128.97
2023-06-30T17:16:46.293Z,100126.22
2023-06-30T17:19:14.227Z,100119.56
2023-06-30T17:21:42.337Z,100129.06
2023-06-30T17:24:10.113Z,100127.72
2023-06-30T17:26:38.451Z,100124.97
2023-06-30T17:29:06.086Z,100129.56
2023-06-30T17:31:34.609Z,100124.00
2023-06-30T17:34:04.944Z,100131.41
2023-06-30T17:36:33.081Z,100135.75
2023-06-30T17:39:00.895Z,100131.00
2023-06-30T17:41:28.916Z,100134.72
2023-06-30T17:43:56.634Z,100136.22
2023-06-30T17:46:24.678Z,100126.34
2023-06-30T17:48:56.155Z,100128.88
2023-06-30T17:51:24.319Z,100126.69
2023-06-30T17:53:52.012Z,100131.03
2023-06-30T17:56:20.418Z,100130.50
2023-06-30T17:58:48.142Z,100120.03
2023-06-30T18:01:16.378Z,100119.81
2023-06-30T18:03:44.080Z,100115.00
2023-06-30T18:06:12.585Z,100116.19
2023-06-30T18:08:40.396Z,100113.25
2023-06-30T18:11:09.880Z,100115.31
2023-06-30T18:13:38.399Z,100107.63
2023-06-30T18:16:06.713Z,100108.19
2023-06-30T18:18:34.470Z,100114.78
2023-06-30T18:21:02.484Z,100106.25
2023-06-30T18:23:30.205Z,100106.88
2023-06-30T18:25:58.238Z,100099.00
2023-06-30T18:28:25.950Z,100107.59
2023-06-30T18:30:53.983Z,100098.69
2023-06-30T18:33:21.712Z,100098.91
2023-06-30T18:35:49.717Z,100090.09
2023-06-30T18:38:17.391Z,100088.00
2023-06-30T18:40:45.764Z,100088.81
2023-06-30T18:43:13.484Z,100094.38
2023-06-30T18:45:41.702Z,100090.13
2023-06-30T18:48:09.444Z,100090.50
2023-06-30T18:50:37.568Z,100090.28
2023-06-30T18:53:05.226Z,100099.66
2023-06-30T18:55:33.238Z,100107.56
2023-06-30T18:58:00.914Z,100106.72
2023-06-30T19:00:29.032Z,100097.25
2023-06-30T19:02:56.866Z,100101.69
2023-06-30T19:05:25.486Z,100112.84
2023-06-30T19:07:53.377Z,100092.06
2023-06-30T19:10:21.441Z,100100.75
2023-06-30T19:12:49.168Z,100090.88
2023-06-30T19:15:17.168Z,100097.78
2023-06-30T19:17:46.169Z,100122.97
2023-06-30T19:20:14.187Z,100117.78
2023-06-30T19:22:41.903Z,100119.50
2023-06-30T19:25:10.001Z,100121.78
2023-06-30T19:27:37.686Z,100128.09
2023-06-30T19:30:06.017Z,100129.31
2023-06-30T19:32:33.865Z,100124.84
2023-06-30T19:35:01.978Z,100127.44
2023-06-30T19:37:29.692Z,100130.38
2023-06-30T19:39:57.690Z,100136.84
2023-06-30T19:42:27.527Z,100139.91
2023-06-30T19:44:56.159Z,100148.63
2023-06-30T19:47:23.895Z,100145.25
2023-06-30T19:49:52.032Z,100149.59
2023-06-30T19:52:21.902Z,100153.09
2023-06-30T19:54:51.327Z,100160.41
2023-06-30T19:57:20.370Z,100167.09
2023-06-30T19:59:48.435Z,100173.91
2023-06-30T20:02:16.301Z,100175.59
2023-06-30T20:04:44.569Z,100174.31
2023-06-30T20:07:12.712Z,100177.03
2023-06-30T20:09:40.703Z,100173.34
2023-06-30T20:12:08.663Z,100174.00
2023-06-30T20:14:36.752Z,100179.25
2023-06-30T20:17:04.739Z,100168.78
2023-06-30T20:19:32.851Z,100167.03
2023-06-30T20:22:00.589Z,100169.38
2023-06-30T20:24:29.028Z,100164.38
2023-06-30T20:26:56.868Z,100172.66
2023-06-30T20:29:24.982Z,100158.13
2023-06-30T20:31:52.715Z,100158.22
2023-06-30T20:34:21.080Z,100156.00
2023-06-30T20:36:48.846Z,100162.78
2023-06-30T20:39:17.090Z,100165.50
2023-06-30T20:41:44.800Z,100162.78
2023-06-30T20:44:14.990Z,100154.75
2023-06-30T20:46:43.518Z,100162.75
2023-06-30T20:49:11.869Z,100168.84
2023-06-30T20:51:40.443Z,100158.72
2023-06-30T20:54:08.576Z,100149.22
2023-06-30T20:56:36.303Z,100145.47
2023-06-30T20:59:04.271Z,100147.50
2023-06-30T21:01:32.029Z,100147.94
2023-06-30T21:04:00.235Z,100146.28
2023-06-30T21:06:28.882Z,100139.97
2023-06-30T21:08:57.026Z,100139.38
2023-06-30T21:11:25.975Z,100138.69
2023-06-30T21:13:54.230Z,100134.94
2023-06-30T21:16:21.934Z,100137.66
2023-06-30T21:18:49.934Z,100131.44
2023-06-30T21:21:17.611Z,100138.53
2023-06-30T21:23:46.844Z,100141.81
2023-06-30T21:26:14.604Z,100134.59
2023-06-30T21:28:42.747Z,100126.16
2023-06-30T21:31:10.487Z,100122.63
2023-06-30T21:33:38.563Z,100128.59
2023-06-30T21:36:06.324Z,100133.09
2023-06-30T21:38:34.353Z,100121.97
2023-06-30T21:41:03.392Z,100125.72
2023-06-30T21:43:31.467Z,100124.75
2023-06-30T21:46:01.646Z,100131.31
2023-06-30T21:48:29.792Z,100142.75
2023-06-30T21:50:57.529Z,100142.31
2023-06-30T21:53:25.890Z,100149.16
2023-06-30T21:55:53.594Z,100138.53
2023-06-30T21:58:27.330Z,100144.31
2023-06-30T22:00:55.885Z,100144.25
2023-06-30T22:03:24.471Z,100142.22
2023-06-30T22:05:52.444Z,100140.31
2023-06-30T22:08:20.546Z,100140.41
2023-06-30T22:10:48.449Z,100134.19
2023-06-30T22:13:16.672Z,100134.13
2023-06-30T22:15:44.375Z,100135.34
2023-06-30T22:18:12.464Z,100132.50
2023-06-30T22:20:40.409Z,100131.13
2023-06-30T22:23:08.456Z,100132.78
2023-06-30T22:25:36.160Z,100128.31
2023-06-30T22:28:04.224Z,100127.78
2023-06-30T22:30:32.718Z,100122.53
2023-06-30T22:33:00.855Z,100117.09
2023-06-30T22:35:28.708Z,100115.25
2023-06-30T22:37:56.840Z,100111.50
2023-06-30T22:40:24.590Z,100115.25
2023-06-30T22:42:52.589Z,100113.84
2023-06-30T22:45:20.250Z,100109.59
2023-06-30T22:47:48.435Z,100099.94
2023-06-30T22:50:16.291Z,100097.38
2023-06-30T22:52:44.322Z,100102.50
2023-06-30T22:55:12.191Z,100097.84
2023-06-30T22:57:40.311Z,100092.91
2023-06-30T23:00:08.524Z,100098.34
2023-06-30T23:02:37.309Z,100098.66
2023-06-30T23:05:05.425Z,100090.78
2023-06-30T23:07:33.532Z,100094.56
2023-06-30T23:10:01.255Z,100094.78
2023-06-30T23:12:29.241Z,100096.56
2023-06-30T23:14:56.912Z,100092.47
2023-06-30T23:17:26.840Z,100099.50
2023-06-30T23:19:54.643Z,100092.91
2023-06-30T23:22:27.359Z,100088.06
2023-06-30T23:24:55.142Z,100086.75
2023-06-30T23:27:28.789Z,100088.97
2023-06-30T23:29:58.081Z,100091.19
2023-06-30T23:32:26.187Z,100081.47
2023-06-30T23:34:54.205Z,100085.75
2023-06-30T23:37:22.236Z,100088.91
2023-06-30T23:39:51.766Z,100095.13
2023-06-30T23:42:19.695Z,100083.13
2023-06-30T23:44:47.370Z,100087.47
2023-06-30T23:47:16.788Z,100080.00
2023-06-30T23:49:46.096Z,100079.91
2023-06-30T23:52:14.181Z,100077.19
2023-06-30T23:54:45.222Z,100073.13
2023-06-30T23:57:13.467Z,100072.09
2023-06-30T23:59:41.219Z,100065.69
